Jonestown, Texas
Current Conditions -  °F | °C
As of 10:55 PM on Thursday 30 Oct 2014 (Local Time) from KRYW Reporting Station
Broken Clouds Broken Clouds  
Wind Chill: 21°   Ceiling: 7000
Heat Index: 21°   Visibility: 10mi
Dew Point: 15°   Wind: 3mph
Humidity: 67%   Direction: 80°E
Pressure: 30.14"   Gusts: NA
Location:  30.4521°N, 97.9683°W
Report Text: KRYW 310355Z AUTO 08003KT 10SM BKN070 BKN110 21/15 A3014 RMK AO2 T02090146
Loading
Personal Weather Stations






























Interactive Weather Map
Tropical Storm Tracking
New forecast layout! Learn more

10-Day Weather Forecast

Advertisements
Track Severe Weather on mobile